sensor_id;sensor_type;location;lat;lon;timestamp;P1;durP1;ratioP1;P2;durP2;ratioP2
75195;SDS011;63773;42.282;22.782;2022-12-07T00:01:29;51.00;;;28.00;;
75195;SDS011;63773;42.282;22.782;2022-12-07T00:03:55;54.08;;;28.48;;
75195;SDS011;63773;42.282;22.782;2022-12-07T00:06:29;52.85;;;26.67;;
75195;SDS011;63773;42.282;22.782;2022-12-07T00:08:54;54.38;;;30.83;;
75195;SDS011;63773;42.282;22.782;2022-12-07T00:11:20;54.78;;;27.30;;
75195;SDS011;63773;42.282;22.782;2022-12-07T00:13:46;54.63;;;27.65;;
75195;SDS011;63773;42.282;22.782;2022-12-07T00:16:16;53.15;;;26.15;;
75195;SDS011;63773;42.282;22.782;2022-12-07T00:18:42;56.50;;;30.35;;
75195;SDS011;63773;42.282;22.782;2022-12-07T00:21:11;54.67;;;29.70;;
75195;SDS011;63773;42.282;22.782;2022-12-07T00:23:37;54.80;;;31.30;;
75195;SDS011;63773;42.282;22.782;2022-12-07T00:26:07;60.38;;;30.02;;
75195;SDS011;63773;42.282;22.782;2022-12-07T00:28:32;57.17;;;33.17;;
75195;SDS011;63773;42.282;22.782;2022-12-07T00:31:02;58.03;;;31.77;;
75195;SDS011;63773;42.282;22.782;2022-12-07T00:33:27;55.50;;;31.05;;
75195;SDS011;63773;42.282;22.782;2022-12-07T00:35:56;58.28;;;31.63;;
75195;SDS011;63773;42.282;22.782;2022-12-07T00:38:22;58.88;;;32.05;;
75195;SDS011;63773;42.282;22.782;2022-12-07T00:40:55;63.33;;;31.48;;
75195;SDS011;63773;42.282;22.782;2022-12-07T00:43:20;56.33;;;28.35;;
75195;SDS011;63773;42.282;22.782;2022-12-07T00:45:46;50.10;;;30.00;;
75195;SDS011;63773;42.282;22.782;2022-12-07T00:48:11;50.58;;;28.92;;
75195;SDS011;63773;42.282;22.782;2022-12-07T00:50:36;50.47;;;27.98;;
75195;SDS011;63773;42.282;22.782;2022-12-07T00:53:02;46.22;;;22.98;;
75195;SDS011;63773;42.282;22.782;2022-12-07T00:55:28;49.30;;;24.52;;
75195;SDS011;63773;42.282;22.782;2022-12-07T00:57:53;46.75;;;26.20;;
75195;SDS011;63773;42.282;22.782;2022-12-07T01:00:18;45.30;;;26.50;;
75195;SDS011;63773;42.282;22.782;2022-12-07T01:02:44;42.67;;;24.27;;
75195;SDS011;63773;42.282;22.782;2022-12-07T01:05:09;44.83;;;24.15;;
75195;SDS011;63773;42.282;22.782;2022-12-07T01:07:35;45.45;;;25.55;;
75195;SDS011;63773;42.282;22.782;2022-12-07T01:10:00;46.65;;;24.98;;
75195;SDS011;63773;42.282;22.782;2022-12-07T01:12:26;44.28;;;23.35;;
75195;SDS011;63773;42.282;22.782;2022-12-07T01:14:51;44.88;;;25.33;;
75195;SDS011;63773;42.282;22.782;2022-12-07T01:17:16;45.80;;;26.65;;
75195;SDS011;63773;42.282;22.782;2022-12-07T01:19:42;52.72;;;27.90;;
75195;SDS011;63773;42.282;22.782;2022-12-07T01:22:07;48.53;;;27.48;;
75195;SDS011;63773;42.282;22.782;2022-12-07T01:24:32;49.63;;;27.52;;
75195;SDS011;63773;42.282;22.782;2022-12-07T01:26:58;57.78;;;27.25;;
75195;SDS011;63773;42.282;22.782;2022-12-07T01:29:23;50.55;;;25.40;;
75195;SDS011;63773;42.282;22.782;2022-12-07T01:31:49;50.42;;;28.58;;
75195;SDS011;63773;42.282;22.782;2022-12-07T01:34:14;56.55;;;30.65;;
75195;SDS011;63773;42.282;22.782;2022-12-07T01:36:39;58.10;;;29.20;;
75195;SDS011;63773;42.282;22.782;2022-12-07T01:51:12;50.42;;;29.17;;
75195;SDS011;63773;42.282;22.782;2022-12-07T01:57:08;51.08;;;27.60;;
75195;SDS011;63773;42.282;22.782;2022-12-07T02:03:08;50.58;;;26.60;;
75195;SDS011;63773;42.282;22.782;2022-12-07T02:09:04;48.30;;;25.58;;
75195;SDS011;63773;42.282;22.782;2022-12-07T02:14:59;50.85;;;26.83;;
75195;SDS011;63773;42.282;22.782;2022-12-07T02:20:59;48.63;;;27.90;;
75195;SDS011;63773;42.282;22.782;2022-12-07T02:27:10;47.13;;;25.25;;
75195;SDS011;63773;42.282;22.782;2022-12-07T02:33:06;46.67;;;24.50;;
75195;SDS011;63773;42.282;22.782;2022-12-07T02:39:07;51.70;;;25.20;;
75195;SDS011;63773;42.282;22.782;2022-12-07T02:45:04;49.53;;;27.50;;
75195;SDS011;63773;42.282;22.782;2022-12-07T02:51:00;50.25;;;26.20;;
75195;SDS011;63773;42.282;22.782;2022-12-07T03:14:30;47.72;;;23.63;;
75195;SDS011;63773;42.282;22.782;2022-12-07T03:20:27;50.25;;;24.55;;
75195;SDS011;63773;42.282;22.782;2022-12-07T03:26:24;48.88;;;24.88;;
75195;SDS011;63773;42.282;22.782;2022-12-07T03:32:32;48.60;;;25.35;;
75195;SDS011;63773;42.282;22.782;2022-12-07T03:38:33;49.30;;;25.58;;
75195;SDS011;63773;42.282;22.782;2022-12-07T03:44:30;46.20;;;24.00;;
75195;SDS011;63773;42.282;22.782;2022-12-07T03:50:29;48.65;;;24.27;;
75195;SDS011;63773;42.282;22.782;2022-12-07T03:56:26;48.88;;;26.00;;
75195;SDS011;63773;42.282;22.782;2022-12-07T04:02:22;47.85;;;23.33;;
75195;SDS011;63773;42.282;22.782;2022-12-07T04:08:18;46.38;;;25.05;;
75195;SDS011;63773;42.282;22.782;2022-12-07T04:14:13;46.53;;;25.77;;
75195;SDS011;63773;42.282;22.782;2022-12-07T04:20:14;43.15;;;24.85;;
75195;SDS011;63773;42.282;22.782;2022-12-07T04:26:09;48.35;;;26.42;;
75195;SDS011;63773;42.282;22.782;2022-12-07T04:32:04;51.78;;;28.13;;
75195;SDS011;63773;42.282;22.782;2022-12-07T04:37:59;49.35;;;26.90;;
75195;SDS011;63773;42.282;22.782;2022-12-07T04:43:54;51.67;;;26.45;;
75195;SDS011;63773;42.282;22.782;2022-12-07T04:49:50;58.83;;;29.55;;
75195;SDS011;63773;42.282;22.782;2022-12-07T04:55:45;61.67;;;31.38;;
75195;SDS011;63773;42.282;22.782;2022-12-07T05:01:40;50.88;;;28.23;;
75195;SDS011;63773;42.282;22.782;2022-12-07T05:07:35;49.65;;;26.08;;
75195;SDS011;63773;42.282;22.782;2022-12-07T05:13:30;51.50;;;25.25;;
75195;SDS011;63773;42.282;22.782;2022-12-07T05:19:25;52.60;;;27.88;;
75195;SDS011;63773;42.282;22.782;2022-12-07T05:25:21;53.97;;;26.73;;
75195;SDS011;63773;42.282;22.782;2022-12-07T05:31:16;49.20;;;26.10;;
75195;SDS011;63773;42.282;22.782;2022-12-07T05:37:11;50.67;;;26.33;;
75195;SDS011;63773;42.282;22.782;2022-12-07T05:43:06;46.78;;;25.50;;
75195;SDS011;63773;42.282;22.782;2022-12-07T05:51:54;53.92;;;25.98;;
75195;SDS011;63773;42.282;22.782;2022-12-07T05:57:36;53.45;;;24.60;;
75195;SDS011;63773;42.282;22.782;2022-12-07T06:03:18;53.63;;;27.35;;
75195;SDS011;63773;42.282;22.782;2022-12-07T06:09:00;48.42;;;26.15;;
75195;SDS011;63773;42.282;22.782;2022-12-07T06:14:42;56.10;;;30.23;;
75195;SDS011;63773;42.282;22.782;2022-12-07T06:20:24;53.03;;;26.63;;
75195;SDS011;63773;42.282;22.782;2022-12-07T06:26:06;51.45;;;27.55;;
75195;SDS011;63773;42.282;22.782;2022-12-07T06:31:48;51.75;;;29.10;;
75195;SDS011;63773;42.282;22.782;2022-12-07T06:37:30;53.22;;;26.75;;
75195;SDS011;63773;42.282;22.782;2022-12-07T06:43:11;53.35;;;30.80;;
75195;SDS011;63773;42.282;22.782;2022-12-07T06:48:53;58.70;;;29.98;;
75195;SDS011;63773;42.282;22.782;2022-12-07T06:54:35;58.92;;;29.10;;
75195;SDS011;63773;42.282;22.782;2022-12-07T07:00:17;73.18;;;36.75;;
75195;SDS011;63773;42.282;22.782;2022-12-07T07:05:59;88.55;;;41.78;;
75195;SDS011;63773;42.282;22.782;2022-12-07T07:11:41;65.20;;;36.33;;
75195;SDS011;63773;42.282;22.782;2022-12-07T07:17:23;80.70;;;44.20;;
75195;SDS011;63773;42.282;22.782;2022-12-07T07:23:05;82.70;;;39.90;;
75195;SDS011;63773;42.282;22.782;2022-12-07T07:28:47;75.05;;;42.25;;
75195;SDS011;63773;42.282;22.782;2022-12-07T07:34:29;70.18;;;37.15;;
75195;SDS011;63773;42.282;22.782;2022-12-07T07:40:11;59.50;;;32.35;;
75195;SDS011;63773;42.282;22.782;2022-12-07T07:45:53;69.03;;;34.20;;
75195;SDS011;63773;42.282;22.782;2022-12-07T07:51:35;65.38;;;34.30;;
75195;SDS011;63773;42.282;22.782;2022-12-07T07:57:17;57.92;;;33.53;;
75195;SDS011;63773;42.282;22.782;2022-12-07T08:02:59;52.20;;;30.27;;
75195;SDS011;63773;42.282;22.782;2022-12-07T08:08:41;57.25;;;32.60;;
75195;SDS011;63773;42.282;22.782;2022-12-07T08:14:24;49.03;;;23.83;;
75195;SDS011;63773;42.282;22.782;2022-12-07T08:29:34;40.22;;;20.45;;
75195;SDS011;63773;42.282;22.782;2022-12-07T08:31:59;37.67;;;19.63;;
75195;SDS011;63773;42.282;22.782;2022-12-07T08:34:26;31.08;;;16.50;;
75195;SDS011;63773;42.282;22.782;2022-12-07T08:36:51;31.02;;;16.38;;
75195;SDS011;63773;42.282;22.782;2022-12-07T08:39:17;30.33;;;15.55;;
75195;SDS011;63773;42.282;22.782;2022-12-07T08:41:42;34.30;;;15.15;;
75195;SDS011;63773;42.282;22.782;2022-12-07T08:44:07;29.83;;;16.70;;
75195;SDS011;63773;42.282;22.782;2022-12-07T08:46:44;40.58;;;17.80;;
75195;SDS011;63773;42.282;22.782;2022-12-07T08:49:13;38.42;;;18.55;;
75195;SDS011;63773;42.282;22.782;2022-12-07T08:51:39;32.28;;;17.30;;
75195;SDS011;63773;42.282;22.782;2022-12-07T08:54:07;29.33;;;16.05;;
75195;SDS011;63773;42.282;22.782;2022-12-07T08:56:34;20.90;;;12.48;;
75195;SDS011;63773;42.282;22.782;2022-12-07T08:58:59;21.02;;;11.57;;
75195;SDS011;63773;42.282;22.782;2022-12-07T09:01:25;28.92;;;12.80;;
75195;SDS011;63773;42.282;22.782;2022-12-07T09:03:50;31.73;;;13.10;;
75195;SDS011;63773;42.282;22.782;2022-12-07T09:06:16;24.95;;;14.05;;
75195;SDS011;63773;42.282;22.782;2022-12-07T09:08:46;26.88;;;11.68;;
75195;SDS011;63773;42.282;22.782;2022-12-07T09:11:12;22.92;;;11.65;;
75195;SDS011;63773;42.282;22.782;2022-12-07T09:13:37;22.05;;;9.70;;
75195;SDS011;63773;42.282;22.782;2022-12-07T09:16:03;20.45;;;9.73;;
75195;SDS011;63773;42.282;22.782;2022-12-07T09:18:28;19.58;;;10.02;;
75195;SDS011;63773;42.282;22.782;2022-12-07T09:20:54;16.45;;;8.45;;
75195;SDS011;63773;42.282;22.782;2022-12-07T09:23:19;18.58;;;8.23;;
75195;SDS011;63773;42.282;22.782;2022-12-07T09:25:44;15.55;;;8.15;;
75195;SDS011;63773;42.282;22.782;2022-12-07T09:28:10;14.95;;;7.57;;
75195;SDS011;63773;42.282;22.782;2022-12-07T09:30:35;16.63;;;8.32;;
75195;SDS011;63773;42.282;22.782;2022-12-07T09:33:01;20.92;;;9.70;;
75195;SDS011;63773;42.282;22.782;2022-12-07T09:35:26;20.20;;;8.73;;
75195;SDS011;63773;42.282;22.782;2022-12-07T09:37:51;18.33;;;9.13;;
75195;SDS011;63773;42.282;22.782;2022-12-07T09:40:17;17.13;;;8.95;;
75195;SDS011;63773;42.282;22.782;2022-12-07T09:42:45;16.88;;;10.00;;
75195;SDS011;63773;42.282;22.782;2022-12-07T09:45:17;15.65;;;8.90;;
75195;SDS011;63773;42.282;22.782;2022-12-07T09:47:44;19.27;;;9.35;;
75195;SDS011;63773;42.282;22.782;2022-12-07T09:50:14;15.82;;;8.35;;
75195;SDS011;63773;42.282;22.782;2022-12-07T09:52:41;16.02;;;9.27;;
75195;SDS011;63773;42.282;22.782;2022-12-07T09:55:10;17.77;;;8.02;;
75195;SDS011;63773;42.282;22.782;2022-12-07T09:57:36;14.27;;;7.75;;
75195;SDS011;63773;42.282;22.782;2022-12-07T10:00:09;14.40;;;7.35;;
75195;SDS011;63773;42.282;22.782;2022-12-07T10:02:39;13.40;;;7.45;;
75195;SDS011;63773;42.282;22.782;2022-12-07T10:05:07;13.73;;;6.90;;
75195;SDS011;63773;42.282;22.782;2022-12-07T10:07:36;16.70;;;7.05;;
75195;SDS011;63773;42.282;22.782;2022-12-07T10:10:02;13.65;;;7.25;;
75195;SDS011;63773;42.282;22.782;2022-12-07T10:12:28;12.88;;;7.22;;
75195;SDS011;63773;42.282;22.782;2022-12-07T10:14:54;10.55;;;6.07;;
75195;SDS011;63773;42.282;22.782;2022-12-07T10:17:41;14.00;;;7.05;;
75195;SDS011;63773;42.282;22.782;2022-12-07T10:22:36;12.82;;;7.07;;
75195;SDS011;63773;42.282;22.782;2022-12-07T10:25:07;14.02;;;6.90;;
75195;SDS011;63773;42.282;22.782;2022-12-07T10:27:33;11.68;;;6.95;;
75195;SDS011;63773;42.282;22.782;2022-12-07T10:29:58;12.07;;;6.38;;
75195;SDS011;63773;42.282;22.782;2022-12-07T10:32:32;13.57;;;6.30;;
75195;SDS011;63773;42.282;22.782;2022-12-07T10:35:18;11.38;;;6.38;;
75195;SDS011;63773;42.282;22.782;2022-12-07T10:37:43;12.32;;;7.32;;
75195;SDS011;63773;42.282;22.782;2022-12-07T10:43:27;11.15;;;6.15;;
75195;SDS011;63773;42.282;22.782;2022-12-07T10:48:19;15.18;;;6.55;;
75195;SDS011;63773;42.282;22.782;2022-12-07T11:06:01;15.32;;;8.60;;
75195;SDS011;63773;42.282;22.782;2022-12-07T11:08:44;15.77;;;8.13;;
75195;SDS011;63773;42.282;22.782;2022-12-07T11:16:21;17.08;;;8.30;;
75195;SDS011;63773;42.282;22.782;2022-12-07T11:26:27;14.20;;;7.40;;
75195;SDS011;63773;42.282;22.782;2022-12-07T11:31:41;14.15;;;7.75;;
75195;SDS011;63773;42.282;22.782;2022-12-07T11:34:15;6.35;;;4.28;;
75195;SDS011;63773;42.282;22.782;2022-12-07T11:36:49;17.73;;;7.15;;
75195;SDS011;63773;42.282;22.782;2022-12-07T11:41:41;8.63;;;4.60;;
75195;SDS011;63773;42.282;22.782;2022-12-07T11:51:54;8.73;;;6.07;;
75195;SDS011;63773;42.282;22.782;2022-12-07T11:54:27;7.00;;;3.78;;
75195;SDS011;63773;42.282;22.782;2022-12-07T11:56:54;10.30;;;3.83;;
75195;SDS011;63773;42.282;22.782;2022-12-07T12:06:52;11.30;;;5.85;;
75195;SDS011;63773;42.282;22.782;2022-12-07T12:22:49;25.70;;;15.10;;
75195;SDS011;63773;42.282;22.782;2022-12-07T12:25:26;11.00;;;5.85;;
75195;SDS011;63773;42.282;22.782;2022-12-07T12:27:53;8.52;;;4.40;;
75195;SDS011;63773;42.282;22.782;2022-12-07T12:30:25;5.07;;;2.63;;
75195;SDS011;63773;42.282;22.782;2022-12-07T12:32:51;5.55;;;2.85;;
75195;SDS011;63773;42.282;22.782;2022-12-07T12:37:48;11.93;;;8.10;;
75195;SDS011;63773;42.282;22.782;2022-12-07T12:42:46;5.50;;;3.05;;
75195;SDS011;63773;42.282;22.782;2022-12-07T12:51:05;24.33;;;13.10;;
75195;SDS011;63773;42.282;22.782;2022-12-07T12:53:36;6.85;;;4.00;;
75195;SDS011;63773;42.282;22.782;2022-12-07T12:56:14;7.78;;;4.40;;
75195;SDS011;63773;42.282;22.782;2022-12-07T12:58:44;6.97;;;2.90;;
75195;SDS011;63773;42.282;22.782;2022-12-07T13:03:55;5.28;;;2.15;;
75195;SDS011;63773;42.282;22.782;2022-12-07T13:08:49;6.90;;;2.83;;
75195;SDS011;63773;42.282;22.782;2022-12-07T13:11:16;5.68;;;2.17;;
75195;SDS011;63773;42.282;22.782;2022-12-07T13:13:42;8.45;;;3.10;;
75195;SDS011;63773;42.282;22.782;2022-12-07T13:20:59;7.55;;;3.30;;
75195;SDS011;63773;42.282;22.782;2022-12-07T13:28:41;7.20;;;2.72;;
75195;SDS011;63773;42.282;22.782;2022-12-07T13:31:20;5.70;;;3.25;;
75195;SDS011;63773;42.282;22.782;2022-12-07T13:33:48;6.18;;;2.63;;
75195;SDS011;63773;42.282;22.782;2022-12-07T13:36:30;5.80;;;3.47;;
75195;SDS011;63773;42.282;22.782;2022-12-07T13:39:01;6.70;;;2.90;;
75195;SDS011;63773;42.282;22.782;2022-12-07T13:41:35;4.53;;;2.85;;
75195;SDS011;63773;42.282;22.782;2022-12-07T13:49:16;9.98;;;5.72;;
75195;SDS011;63773;42.282;22.782;2022-12-07T13:51:41;14.50;;;8.20;;
75195;SDS011;63773;42.282;22.782;2022-12-07T13:54:11;9.55;;;4.60;;
75195;SDS011;63773;42.282;22.782;2022-12-07T13:56:36;7.28;;;4.25;;
75195;SDS011;63773;42.282;22.782;2022-12-07T13:59:02;12.05;;;6.88;;
75195;SDS011;63773;42.282;22.782;2022-12-07T14:01:30;11.98;;;5.75;;
75195;SDS011;63773;42.282;22.782;2022-12-07T14:03:56;37.53;;;19.40;;
75195;SDS011;63773;42.282;22.782;2022-12-07T14:06:23;112.53;;;52.40;;
75195;SDS011;63773;42.282;22.782;2022-12-07T14:09:08;39.00;;;21.98;;
75195;SDS011;63773;42.282;22.782;2022-12-07T14:11:34;17.42;;;10.07;;
75195;SDS011;63773;42.282;22.782;2022-12-07T14:14:00;21.90;;;10.98;;
75195;SDS011;63773;42.282;22.782;2022-12-07T14:16:33;16.20;;;6.80;;
75195;SDS011;63773;42.282;22.782;2022-12-07T14:21:26;14.10;;;7.70;;
75195;SDS011;63773;42.282;22.782;2022-12-07T14:26:35;18.55;;;9.57;;
75195;SDS011;63773;42.282;22.782;2022-12-07T14:31:45;14.80;;;7.47;;
75195;SDS011;63773;42.282;22.782;2022-12-07T14:34:11;9.13;;;4.45;;
75195;SDS011;63773;42.282;22.782;2022-12-07T14:36:37;9.20;;;5.03;;
75195;SDS011;63773;42.282;22.782;2022-12-07T14:39:02;9.45;;;5.20;;
75195;SDS011;63773;42.282;22.782;2022-12-07T14:41:27;8.93;;;3.97;;
75195;SDS011;63773;42.282;22.782;2022-12-07T14:44:12;9.38;;;4.75;;
75195;SDS011;63773;42.282;22.782;2022-12-07T14:46:37;11.07;;;6.60;;
75195;SDS011;63773;42.282;22.782;2022-12-07T14:49:03;12.95;;;8.52;;
75195;SDS011;63773;42.282;22.782;2022-12-07T14:51:28;15.65;;;8.93;;
75195;SDS011;63773;42.282;22.782;2022-12-07T14:53:54;10.77;;;5.93;;
75195;SDS011;63773;42.282;22.782;2022-12-07T14:56:19;8.60;;;5.60;;
75195;SDS011;63773;42.282;22.782;2022-12-07T14:58:45;8.80;;;4.55;;
75195;SDS011;63773;42.282;22.782;2022-12-07T15:01:13;9.35;;;4.72;;
75195;SDS011;63773;42.282;22.782;2022-12-07T15:03:38;9.00;;;4.85;;
75195;SDS011;63773;42.282;22.782;2022-12-07T15:06:04;8.45;;;5.13;;
75195;SDS011;63773;42.282;22.782;2022-12-07T15:08:29;9.48;;;5.05;;
75195;SDS011;63773;42.282;22.782;2022-12-07T15:10:55;7.53;;;4.28;;
75195;SDS011;63773;42.282;22.782;2022-12-07T15:13:20;15.90;;;5.85;;
75195;SDS011;63773;42.282;22.782;2022-12-07T15:16:04;10.95;;;5.90;;
75195;SDS011;63773;42.282;22.782;2022-12-07T15:18:30;24.25;;;8.93;;
75195;SDS011;63773;42.282;22.782;2022-12-07T15:20:55;18.88;;;7.78;;
75195;SDS011;63773;42.282;22.782;2022-12-07T15:23:20;13.73;;;5.53;;
75195;SDS011;63773;42.282;22.782;2022-12-07T15:25:47;7.00;;;4.15;;
75195;SDS011;63773;42.282;22.782;2022-12-07T15:28:13;10.65;;;4.90;;
75195;SDS011;63773;42.282;22.782;2022-12-07T15:30:38;14.18;;;5.00;;
75195;SDS011;63773;42.282;22.782;2022-12-07T15:33:04;15.85;;;6.13;;
75195;SDS011;63773;42.282;22.782;2022-12-07T15:35:29;14.48;;;6.35;;
75195;SDS011;63773;42.282;22.782;2022-12-07T15:37:55;13.05;;;6.55;;
75195;SDS011;63773;42.282;22.782;2022-12-07T15:40:20;11.02;;;5.63;;
75195;SDS011;63773;42.282;22.782;2022-12-07T15:42:46;13.73;;;6.65;;
75195;SDS011;63773;42.282;22.782;2022-12-07T15:45:11;12.73;;;6.20;;
75195;SDS011;63773;42.282;22.782;2022-12-07T15:47:43;17.52;;;8.05;;
75195;SDS011;63773;42.282;22.782;2022-12-07T15:52:37;13.77;;;5.50;;
75195;SDS011;63773;42.282;22.782;2022-12-07T15:55:03;10.15;;;4.68;;
75195;SDS011;63773;42.282;22.782;2022-12-07T15:57:29;7.95;;;4.63;;
75195;SDS011;63773;42.282;22.782;2022-12-07T15:59:54;12.50;;;5.28;;
75195;SDS011;63773;42.282;22.782;2022-12-07T16:02:19;9.90;;;5.50;;
75195;SDS011;63773;42.282;22.782;2022-12-07T16:04:45;10.68;;;5.13;;
75195;SDS011;63773;42.282;22.782;2022-12-07T16:07:11;10.88;;;5.85;;
75195;SDS011;63773;42.282;22.782;2022-12-07T16:09:37;12.40;;;7.15;;
75195;SDS011;63773;42.282;22.782;2022-12-07T16:12:02;13.55;;;7.47;;
75195;SDS011;63773;42.282;22.782;2022-12-07T16:14:27;14.25;;;6.53;;
75195;SDS011;63773;42.282;22.782;2022-12-07T16:16:53;14.27;;;7.18;;
75195;SDS011;63773;42.282;22.782;2022-12-07T16:19:18;10.98;;;5.80;;
75195;SDS011;63773;42.282;22.782;2022-12-07T16:21:44;11.27;;;5.97;;
75195;SDS011;63773;42.282;22.782;2022-12-07T16:24:09;11.63;;;5.72;;
75195;SDS011;63773;42.282;22.782;2022-12-07T16:26:35;7.40;;;4.22;;
75195;SDS011;63773;42.282;22.782;2022-12-07T16:29:00;9.70;;;5.03;;
75195;SDS011;63773;42.282;22.782;2022-12-07T16:31:26;10.82;;;5.00;;
75195;SDS011;63773;42.282;22.782;2022-12-07T16:33:52;11.73;;;5.03;;
75195;SDS011;63773;42.282;22.782;2022-12-07T16:36:18;10.10;;;5.75;;
75195;SDS011;63773;42.282;22.782;2022-12-07T16:38:44;15.05;;;6.88;;
75195;SDS011;63773;42.282;22.782;2022-12-07T16:41:09;12.82;;;5.70;;
75195;SDS011;63773;42.282;22.782;2022-12-07T16:43:35;11.40;;;5.60;;
75195;SDS011;63773;42.282;22.782;2022-12-07T16:46:01;9.95;;;5.32;;
75195;SDS011;63773;42.282;22.782;2022-12-07T16:48:27;12.00;;;6.85;;
75195;SDS011;63773;42.282;22.782;2022-12-07T16:50:52;10.52;;;5.38;;
75195;SDS011;63773;42.282;22.782;2022-12-07T16:53:21;17.13;;;6.00;;
75195;SDS011;63773;42.282;22.782;2022-12-07T16:55:46;13.43;;;6.47;;
75195;SDS011;63773;42.282;22.782;2022-12-07T16:58:12;11.55;;;6.43;;
75195;SDS011;63773;42.282;22.782;2022-12-07T17:00:38;11.63;;;6.63;;
75195;SDS011;63773;42.282;22.782;2022-12-07T17:03:03;14.98;;;7.13;;
75195;SDS011;63773;42.282;22.782;2022-12-07T17:05:29;15.48;;;6.65;;
75195;SDS011;63773;42.282;22.782;2022-12-07T17:07:55;11.32;;;5.90;;
75195;SDS011;63773;42.282;22.782;2022-12-07T17:10:21;17.38;;;9.38;;
75195;SDS011;63773;42.282;22.782;2022-12-07T17:12:46;25.02;;;10.98;;
75195;SDS011;63773;42.282;22.782;2022-12-07T17:15:12;21.95;;;11.07;;
75195;SDS011;63773;42.282;22.782;2022-12-07T17:17:52;24.73;;;11.57;;
75195;SDS011;63773;42.282;22.782;2022-12-07T17:20:19;24.42;;;11.98;;
75195;SDS011;63773;42.282;22.782;2022-12-07T17:22:45;19.73;;;10.90;;
75195;SDS011;63773;42.282;22.782;2022-12-07T17:25:10;18.00;;;10.48;;
75195;SDS011;63773;42.282;22.782;2022-12-07T17:27:36;20.23;;;10.20;;
75195;SDS011;63773;42.282;22.782;2022-12-07T17:30:02;24.65;;;11.65;;
75195;SDS011;63773;42.282;22.782;2022-12-07T17:32:28;19.95;;;10.27;;
75195;SDS011;63773;42.282;22.782;2022-12-07T17:34:53;21.13;;;10.30;;
75195;SDS011;63773;42.282;22.782;2022-12-07T17:37:19;22.17;;;11.00;;
75195;SDS011;63773;42.282;22.782;2022-12-07T17:39:44;25.98;;;12.45;;
75195;SDS011;63773;42.282;22.782;2022-12-07T17:42:10;27.02;;;13.65;;
75195;SDS011;63773;42.282;22.782;2022-12-07T17:44:53;31.63;;;16.05;;
75195;SDS011;63773;42.282;22.782;2022-12-07T17:47:19;41.40;;;19.27;;
75195;SDS011;63773;42.282;22.782;2022-12-07T17:49:45;77.40;;;39.30;;
75195;SDS011;63773;42.282;22.782;2022-12-07T17:52:12;71.75;;;36.85;;
75195;SDS011;63773;42.282;22.782;2022-12-07T17:54:56;75.65;;;36.97;;
75195;SDS011;63773;42.282;22.782;2022-12-07T17:57:21;70.47;;;35.75;;
75195;SDS011;63773;42.282;22.782;2022-12-07T17:59:47;72.40;;;37.88;;
75195;SDS011;63773;42.282;22.782;2022-12-07T18:02:12;64.72;;;34.22;;
75195;SDS011;63773;42.282;22.782;2022-12-07T18:04:38;67.47;;;35.83;;
75195;SDS011;63773;42.282;22.782;2022-12-07T18:09:31;56.47;;;28.07;;
75195;SDS011;63773;42.282;22.782;2022-12-07T18:11:56;39.13;;;23.05;;
75195;SDS011;63773;42.282;22.782;2022-12-07T18:14:22;35.95;;;19.83;;
75195;SDS011;63773;42.282;22.782;2022-12-07T18:16:47;43.17;;;22.10;;
75195;SDS011;63773;42.282;22.782;2022-12-07T18:19:13;38.60;;;20.02;;
75195;SDS011;63773;42.282;22.782;2022-12-07T18:21:41;55.97;;;28.92;;
75195;SDS011;63773;42.282;22.782;2022-12-07T18:24:07;66.57;;;31.13;;
75195;SDS011;63773;42.282;22.782;2022-12-07T18:26:34;61.28;;;33.08;;
75195;SDS011;63773;42.282;22.782;2022-12-07T18:29:01;71.45;;;35.90;;
75195;SDS011;63773;42.282;22.782;2022-12-07T18:31:27;61.88;;;30.60;;
75195;SDS011;63773;42.282;22.782;2022-12-07T18:33:53;65.72;;;32.78;;
75195;SDS011;63773;42.282;22.782;2022-12-07T18:36:22;69.97;;;34.92;;
75195;SDS011;63773;42.282;22.782;2022-12-07T18:38:47;82.40;;;40.63;;
75195;SDS011;63773;42.282;22.782;2022-12-07T18:41:14;92.68;;;43.60;;
75195;SDS011;63773;42.282;22.782;2022-12-07T18:43:40;96.72;;;47.35;;
75195;SDS011;63773;42.282;22.782;2022-12-07T18:46:23;91.32;;;44.80;;
75195;SDS011;63773;42.282;22.782;2022-12-07T18:48:49;90.03;;;44.90;;
75195;SDS011;63773;42.282;22.782;2022-12-07T18:51:15;92.35;;;47.45;;
75195;SDS011;63773;42.282;22.782;2022-12-07T18:53:41;100.75;;;52.20;;
75195;SDS011;63773;42.282;22.782;2022-12-07T18:56:16;97.63;;;47.70;;
75195;SDS011;63773;42.282;22.782;2022-12-07T18:58:42;90.32;;;44.42;;
75195;SDS011;63773;42.282;22.782;2022-12-07T19:01:31;85.28;;;40.97;;
75195;SDS011;63773;42.282;22.782;2022-12-07T19:03:56;76.55;;;39.08;;
75195;SDS011;63773;42.282;22.782;2022-12-07T19:06:22;86.93;;;42.58;;
75195;SDS011;63773;42.282;22.782;2022-12-07T19:08:47;82.80;;;39.30;;
75195;SDS011;63773;42.282;22.782;2022-12-07T19:11:17;77.10;;;38.67;;
75195;SDS011;63773;42.282;22.782;2022-12-07T19:14:00;83.13;;;39.67;;
75195;SDS011;63773;42.282;22.782;2022-12-07T19:16:26;81.07;;;40.22;;
75195;SDS011;63773;42.282;22.782;2022-12-07T19:18:51;76.15;;;37.70;;
75195;SDS011;63773;42.282;22.782;2022-12-07T19:21:17;63.90;;;33.33;;
75195;SDS011;63773;42.282;22.782;2022-12-07T19:23:42;66.20;;;33.25;;
75195;SDS011;63773;42.282;22.782;2022-12-07T19:26:08;65.05;;;32.25;;
75195;SDS011;63773;42.282;22.782;2022-12-07T19:28:33;70.20;;;32.00;;
75195;SDS011;63773;42.282;22.782;2022-12-07T19:30:58;60.80;;;32.47;;
75195;SDS011;63773;42.282;22.782;2022-12-07T19:33:24;61.13;;;29.77;;
75195;SDS011;63773;42.282;22.782;2022-12-07T19:35:49;68.50;;;30.25;;
75195;SDS011;63773;42.282;22.782;2022-12-07T19:38:14;61.22;;;30.23;;
75195;SDS011;63773;42.282;22.782;2022-12-07T19:40:40;45.40;;;22.50;;
75195;SDS011;63773;42.282;22.782;2022-12-07T19:43:05;40.05;;;19.45;;
75195;SDS011;63773;42.282;22.782;2022-12-07T19:45:30;42.20;;;20.48;;
75195;SDS011;63773;42.282;22.782;2022-12-07T19:50:23;44.23;;;20.73;;
75195;SDS011;63773;42.282;22.782;2022-12-07T19:52:49;52.78;;;23.17;;
75195;SDS011;63773;42.282;22.782;2022-12-07T19:55:14;45.65;;;21.95;;
75195;SDS011;63773;42.282;22.782;2022-12-07T19:57:40;42.80;;;21.33;;
75195;SDS011;63773;42.282;22.782;2022-12-07T20:00:05;42.85;;;21.00;;
75195;SDS011;63773;42.282;22.782;2022-12-07T20:02:31;42.65;;;21.38;;
75195;SDS011;63773;42.282;22.782;2022-12-07T20:04:57;38.33;;;20.15;;
75195;SDS011;63773;42.282;22.782;2022-12-07T20:07:23;38.60;;;20.00;;
75195;SDS011;63773;42.282;22.782;2022-12-07T20:09:49;44.03;;;21.95;;
75195;SDS011;63773;42.282;22.782;2022-12-07T20:12:14;39.50;;;20.73;;
75195;SDS011;63773;42.282;22.782;2022-12-07T20:14:58;45.47;;;23.08;;
75195;SDS011;63773;42.282;22.782;2022-12-07T20:17:23;41.80;;;21.50;;
75195;SDS011;63773;42.282;22.782;2022-12-07T20:19:48;45.40;;;23.27;;
75195;SDS011;63773;42.282;22.782;2022-12-07T20:22:14;44.60;;;20.58;;
75195;SDS011;63773;42.282;22.782;2022-12-07T20:24:39;40.92;;;21.27;;
75195;SDS011;63773;42.282;22.782;2022-12-07T20:27:05;42.28;;;21.20;;
75195;SDS011;63773;42.282;22.782;2022-12-07T20:29:30;47.60;;;23.30;;